sensor_id;sensor_type;location;lat;lon;timestamp;P1;durP1;ratioP1;P2;durP2;ratioP2
20138;SDS011;10230;51.502;10.800;2022-12-07T00:01:12;9.83;;;5.17;;
20138;SDS011;10230;51.502;10.800;2022-12-07T00:03:39;9.03;;;4.43;;
20138;SDS011;10230;51.502;10.800;2022-12-07T00:06:06;9.27;;;4.40;;
20138;SDS011;10230;51.502;10.800;2022-12-07T00:08:33;8.47;;;4.97;;
20138;SDS011;10230;51.502;10.800;2022-12-07T00:13:30;8.57;;;4.43;;
20138;SDS011;10230;51.502;10.800;2022-12-07T00:15:59;8.93;;;4.57;;
20138;SDS011;10230;51.502;10.800;2022-12-07T00:18:29;6.70;;;4.20;;
20138;SDS011;10230;51.502;10.800;2022-12-07T00:20:59;9.07;;;4.87;;
20138;SDS011;10230;51.502;10.800;2022-12-07T00:23:29;7.07;;;3.93;;
20138;SDS011;10230;51.502;10.800;2022-12-07T00:25:54;6.87;;;4.37;;
20138;SDS011;10230;51.502;10.800;2022-12-07T00:28:20;8.07;;;5.23;;
20138;SDS011;10230;51.502;10.800;2022-12-07T00:30:46;9.00;;;5.63;;
20138;SDS011;10230;51.502;10.800;2022-12-07T00:33:11;9.07;;;4.63;;
20138;SDS011;10230;51.502;10.800;2022-12-07T00:35:37;6.87;;;3.77;;
20138;SDS011;10230;51.502;10.800;2022-12-07T00:38:03;8.43;;;4.37;;
20138;SDS011;10230;51.502;10.800;2022-12-07T00:40:28;9.83;;;5.53;;
20138;SDS011;10230;51.502;10.800;2022-12-07T00:42:54;8.80;;;5.13;;
20138;SDS011;10230;51.502;10.800;2022-12-07T00:45:19;8.90;;;5.60;;
20138;SDS011;10230;51.502;10.800;2022-12-07T00:47:45;7.90;;;3.97;;
20138;SDS011;10230;51.502;10.800;2022-12-07T00:50:11;8.33;;;4.53;;
20138;SDS011;10230;51.502;10.800;2022-12-07T00:52:36;8.30;;;5.13;;
20138;SDS011;10230;51.502;10.800;2022-12-07T00:55:02;8.57;;;5.43;;
20138;SDS011;10230;51.502;10.800;2022-12-07T00:57:28;8.13;;;4.80;;
20138;SDS011;10230;51.502;10.800;2022-12-07T00:59:55;8.70;;;4.90;;
20138;SDS011;10230;51.502;10.800;2022-12-07T01:02:22;8.13;;;4.97;;
20138;SDS011;10230;51.502;10.800;2022-12-07T01:04:48;6.77;;;4.20;;
20138;SDS011;10230;51.502;10.800;2022-12-07T01:07:14;7.00;;;4.20;;
20138;SDS011;10230;51.502;10.800;2022-12-07T01:09:39;8.40;;;5.33;;
20138;SDS011;10230;51.502;10.800;2022-12-07T01:12:05;9.13;;;4.77;;
20138;SDS011;10230;51.502;10.800;2022-12-07T01:14:31;9.57;;;6.07;;
20138;SDS011;10230;51.502;10.800;2022-12-07T01:16:56;11.67;;;5.87;;
20138;SDS011;10230;51.502;10.800;2022-12-07T01:19:22;8.87;;;4.70;;
20138;SDS011;10230;51.502;10.800;2022-12-07T01:21:48;8.20;;;4.80;;
20138;SDS011;10230;51.502;10.800;2022-12-07T01:24:13;9.63;;;4.97;;
20138;SDS011;10230;51.502;10.800;2022-12-07T01:26:39;10.20;;;6.03;;
20138;SDS011;10230;51.502;10.800;2022-12-07T01:29:05;6.97;;;5.20;;
20138;SDS011;10230;51.502;10.800;2022-12-07T01:31:30;8.73;;;5.53;;
20138;SDS011;10230;51.502;10.800;2022-12-07T01:33:57;7.20;;;4.97;;
20138;SDS011;10230;51.502;10.800;2022-12-07T01:36:24;8.60;;;5.23;;
20138;SDS011;10230;51.502;10.800;2022-12-07T01:38:54;10.13;;;5.63;;
20138;SDS011;10230;51.502;10.800;2022-12-07T01:41:22;11.00;;;5.30;;
20138;SDS011;10230;51.502;10.800;2022-12-07T01:46:38;8.07;;;4.30;;
20138;SDS011;10230;51.502;10.800;2022-12-07T01:49:09;8.50;;;5.17;;
20138;SDS011;10230;51.502;10.800;2022-12-07T01:51:39;13.93;;;4.93;;
20138;SDS011;10230;51.502;10.800;2022-12-07T01:54:07;9.53;;;6.07;;
20138;SDS011;10230;51.502;10.800;2022-12-07T01:56:35;7.33;;;4.70;;
20138;SDS011;10230;51.502;10.800;2022-12-07T01:59:02;7.00;;;4.37;;
20138;SDS011;10230;51.502;10.800;2022-12-07T02:01:28;8.50;;;5.80;;
20138;SDS011;10230;51.502;10.800;2022-12-07T02:03:54;9.27;;;5.20;;
20138;SDS011;10230;51.502;10.800;2022-12-07T02:06:20;9.47;;;5.20;;
20138;SDS011;10230;51.502;10.800;2022-12-07T02:08:49;8.43;;;5.23;;
20138;SDS011;10230;51.502;10.800;2022-12-07T02:11:15;7.37;;;4.70;;
20138;SDS011;10230;51.502;10.800;2022-12-07T02:13:41;11.60;;;6.63;;
20138;SDS011;10230;51.502;10.800;2022-12-07T02:27:47;9.10;;;4.80;;
20138;SDS011;10230;51.502;10.800;2022-12-07T02:30:21;8.27;;;5.20;;
20138;SDS011;10230;51.502;10.800;2022-12-07T02:32:53;8.37;;;4.53;;
20138;SDS011;10230;51.502;10.800;2022-12-07T02:35:48;7.50;;;4.60;;
20138;SDS011;10230;51.502;10.800;2022-12-07T02:38:25;7.60;;;4.77;;
20138;SDS011;10230;51.502;10.800;2022-12-07T02:43:38;7.93;;;4.90;;
20138;SDS011;10230;51.502;10.800;2022-12-07T02:46:09;6.63;;;3.60;;
20138;SDS011;10230;51.502;10.800;2022-12-07T02:48:38;7.97;;;4.00;;
20138;SDS011;10230;51.502;10.800;2022-12-07T02:51:06;8.13;;;4.57;;
20138;SDS011;10230;51.502;10.800;2022-12-07T02:53:32;7.93;;;5.03;;
20138;SDS011;10230;51.502;10.800;2022-12-07T03:07:14;7.83;;;4.63;;
20138;SDS011;10230;51.502;10.800;2022-12-07T03:12:55;5.87;;;3.80;;
20138;SDS011;10230;51.502;10.800;2022-12-07T03:15:40;5.80;;;3.27;;
20138;SDS011;10230;51.502;10.800;2022-12-07T03:18:12;6.30;;;3.80;;
20138;SDS011;10230;51.502;10.800;2022-12-07T03:20:41;7.03;;;3.83;;
20138;SDS011;10230;51.502;10.800;2022-12-07T03:23:10;5.93;;;3.00;;
20138;SDS011;10230;51.502;10.800;2022-12-07T03:25:39;7.23;;;3.80;;
20138;SDS011;10230;51.502;10.800;2022-12-07T03:28:08;4.57;;;3.27;;
20138;SDS011;10230;51.502;10.800;2022-12-07T03:30:41;5.77;;;3.43;;
20138;SDS011;10230;51.502;10.800;2022-12-07T03:33:21;4.93;;;2.77;;
20138;SDS011;10230;51.502;10.800;2022-12-07T03:35:51;5.73;;;3.10;;
20138;SDS011;10230;51.502;10.800;2022-12-07T03:41:54;6.23;;;3.60;;
20138;SDS011;10230;51.502;10.800;2022-12-07T03:44:22;7.23;;;3.37;;
20138;SDS011;10230;51.502;10.800;2022-12-07T03:46:50;4.77;;;3.20;;
20138;SDS011;10230;51.502;10.800;2022-12-07T03:49:43;5.53;;;3.77;;
20138;SDS011;10230;51.502;10.800;2022-12-07T03:57:53;6.80;;;4.53;;
20138;SDS011;10230;51.502;10.800;2022-12-07T04:00:23;5.43;;;3.70;;
20138;SDS011;10230;51.502;10.800;2022-12-07T04:02:50;4.87;;;3.10;;
20138;SDS011;10230;51.502;10.800;2022-12-07T04:05:17;8.27;;;4.30;;
20138;SDS011;10230;51.502;10.800;2022-12-07T04:07:43;6.20;;;3.80;;
20138;SDS011;10230;51.502;10.800;2022-12-07T04:10:09;6.30;;;3.57;;
20138;SDS011;10230;51.502;10.800;2022-12-07T04:12:36;6.17;;;4.33;;
20138;SDS011;10230;51.502;10.800;2022-12-07T04:15:02;7.57;;;4.23;;
20138;SDS011;10230;51.502;10.800;2022-12-07T04:17:28;6.90;;;4.20;;
20138;SDS011;10230;51.502;10.800;2022-12-07T04:19:53;5.77;;;4.20;;
20138;SDS011;10230;51.502;10.800;2022-12-07T04:22:19;6.23;;;3.83;;
20138;SDS011;10230;51.502;10.800;2022-12-07T04:24:45;7.23;;;3.63;;
20138;SDS011;10230;51.502;10.800;2022-12-07T04:27:11;5.77;;;3.87;;
20138;SDS011;10230;51.502;10.800;2022-12-07T04:29:36;6.43;;;4.00;;
20138;SDS011;10230;51.502;10.800;2022-12-07T04:32:02;5.73;;;3.90;;
20138;SDS011;10230;51.502;10.800;2022-12-07T04:34:28;6.97;;;3.60;;
20138;SDS011;10230;51.502;10.800;2022-12-07T04:36:53;7.27;;;4.40;;
20138;SDS011;10230;51.502;10.800;2022-12-07T04:39:20;7.83;;;4.70;;
20138;SDS011;10230;51.502;10.800;2022-12-07T04:41:46;7.27;;;4.13;;
20138;SDS011;10230;51.502;10.800;2022-12-07T04:44:12;6.10;;;3.73;;
20138;SDS011;10230;51.502;10.800;2022-12-07T04:46:39;9.37;;;4.67;;
20138;SDS011;10230;51.502;10.800;2022-12-07T04:49:05;7.37;;;4.73;;
20138;SDS011;10230;51.502;10.800;2022-12-07T04:51:31;7.47;;;4.57;;
20138;SDS011;10230;51.502;10.800;2022-12-07T04:53:57;6.73;;;4.30;;
20138;SDS011;10230;51.502;10.800;2022-12-07T04:56:23;6.53;;;3.70;;
20138;SDS011;10230;51.502;10.800;2022-12-07T04:58:49;6.30;;;4.10;;
20138;SDS011;10230;51.502;10.800;2022-12-07T05:01:16;7.30;;;4.90;;
20138;SDS011;10230;51.502;10.800;2022-12-07T05:03:42;10.47;;;5.17;;
20138;SDS011;10230;51.502;10.800;2022-12-07T05:06:09;7.47;;;4.20;;
20138;SDS011;10230;51.502;10.800;2022-12-07T05:08:35;6.93;;;3.90;;
20138;SDS011;10230;51.502;10.800;2022-12-07T05:11:02;8.80;;;5.60;;
20138;SDS011;10230;51.502;10.800;2022-12-07T05:13:29;6.53;;;4.60;;
20138;SDS011;10230;51.502;10.800;2022-12-07T05:15:55;7.23;;;4.87;;
20138;SDS011;10230;51.502;10.800;2022-12-07T05:18:20;8.23;;;4.93;;
20138;SDS011;10230;51.502;10.800;2022-12-07T05:20:46;7.30;;;4.17;;
20138;SDS011;10230;51.502;10.800;2022-12-07T05:23:12;8.27;;;5.20;;
20138;SDS011;10230;51.502;10.800;2022-12-07T05:25:38;8.23;;;4.77;;
20138;SDS011;10230;51.502;10.800;2022-12-07T05:28:04;8.00;;;4.63;;
20138;SDS011;10230;51.502;10.800;2022-12-07T05:30:30;8.67;;;4.17;;
20138;SDS011;10230;51.502;10.800;2022-12-07T05:32:57;8.03;;;4.47;;
20138;SDS011;10230;51.502;10.800;2022-12-07T05:35:23;8.83;;;4.53;;
20138;SDS011;10230;51.502;10.800;2022-12-07T05:37:49;8.93;;;4.43;;
20138;SDS011;10230;51.502;10.800;2022-12-07T05:40:14;9.67;;;5.20;;
20138;SDS011;10230;51.502;10.800;2022-12-07T05:42:41;9.23;;;5.50;;
20138;SDS011;10230;51.502;10.800;2022-12-07T05:45:07;7.10;;;3.87;;
20138;SDS011;10230;51.502;10.800;2022-12-07T05:47:34;9.80;;;5.27;;
20138;SDS011;10230;51.502;10.800;2022-12-07T05:50:01;10.23;;;5.53;;
20138;SDS011;10230;51.502;10.800;2022-12-07T05:52:26;8.43;;;4.97;;
20138;SDS011;10230;51.502;10.800;2022-12-07T05:54:52;9.70;;;5.27;;
20138;SDS011;10230;51.502;10.800;2022-12-07T05:57:18;10.53;;;5.00;;
20138;SDS011;10230;51.502;10.800;2022-12-07T05:59:44;11.07;;;5.27;;
20138;SDS011;10230;51.502;10.800;2022-12-07T06:02:11;13.67;;;6.00;;
20138;SDS011;10230;51.502;10.800;2022-12-07T06:04:39;12.03;;;6.17;;
20138;SDS011;10230;51.502;10.800;2022-12-07T06:07:06;11.27;;;4.87;;
20138;SDS011;10230;51.502;10.800;2022-12-07T06:09:33;11.97;;;5.20;;
20138;SDS011;10230;51.502;10.800;2022-12-07T06:11:59;11.20;;;5.80;;
20138;SDS011;10230;51.502;10.800;2022-12-07T06:14:44;8.57;;;4.90;;
20138;SDS011;10230;51.502;10.800;2022-12-07T06:17:10;9.60;;;4.97;;
20138;SDS011;10230;51.502;10.800;2022-12-07T06:19:36;11.63;;;6.33;;
20138;SDS011;10230;51.502;10.800;2022-12-07T06:22:01;11.90;;;6.03;;
20138;SDS011;10230;51.502;10.800;2022-12-07T06:24:29;10.27;;;4.97;;
20138;SDS011;10230;51.502;10.800;2022-12-07T06:26:55;9.43;;;4.50;;
20138;SDS011;10230;51.502;10.800;2022-12-07T06:29:21;8.97;;;5.53;;
20138;SDS011;10230;51.502;10.800;2022-12-07T06:31:47;10.93;;;5.17;;
20138;SDS011;10230;51.502;10.800;2022-12-07T06:34:14;10.43;;;5.60;;
20138;SDS011;10230;51.502;10.800;2022-12-07T06:36:44;11.20;;;4.43;;
20138;SDS011;10230;51.502;10.800;2022-12-07T06:39:12;9.07;;;4.13;;
20138;SDS011;10230;51.502;10.800;2022-12-07T06:41:38;7.90;;;4.53;;
20138;SDS011;10230;51.502;10.800;2022-12-07T06:44:04;9.00;;;4.37;;
20138;SDS011;10230;51.502;10.800;2022-12-07T06:46:31;8.03;;;4.20;;
20138;SDS011;10230;51.502;10.800;2022-12-07T06:48:57;8.30;;;4.90;;
20138;SDS011;10230;51.502;10.800;2022-12-07T06:51:22;8.70;;;4.20;;
20138;SDS011;10230;51.502;10.800;2022-12-07T06:53:48;9.37;;;5.37;;
20138;SDS011;10230;51.502;10.800;2022-12-07T06:56:14;8.00;;;5.70;;
20138;SDS011;10230;51.502;10.800;2022-12-07T06:58:40;7.53;;;4.27;;
20138;SDS011;10230;51.502;10.800;2022-12-07T07:01:13;10.90;;;5.90;;
20138;SDS011;10230;51.502;10.800;2022-12-07T07:03:42;8.70;;;4.60;;
20138;SDS011;10230;51.502;10.800;2022-12-07T07:06:09;9.27;;;4.50;;
20138;SDS011;10230;51.502;10.800;2022-12-07T07:08:35;9.23;;;4.00;;
20138;SDS011;10230;51.502;10.800;2022-12-07T07:11:01;9.20;;;5.23;;
20138;SDS011;10230;51.502;10.800;2022-12-07T07:13:27;8.53;;;4.10;;
20138;SDS011;10230;51.502;10.800;2022-12-07T07:15:53;8.83;;;4.67;;
20138;SDS011;10230;51.502;10.800;2022-12-07T07:18:19;11.07;;;4.30;;
20138;SDS011;10230;51.502;10.800;2022-12-07T07:20:45;8.97;;;4.57;;
20138;SDS011;10230;51.502;10.800;2022-12-07T07:23:11;10.67;;;5.90;;
20138;SDS011;10230;51.502;10.800;2022-12-07T07:25:37;9.43;;;4.83;;
20138;SDS011;10230;51.502;10.800;2022-12-07T07:28:03;12.10;;;4.83;;
20138;SDS011;10230;51.502;10.800;2022-12-07T07:30:29;9.20;;;5.20;;
20138;SDS011;10230;51.502;10.800;2022-12-07T07:32:58;9.00;;;4.23;;
20138;SDS011;10230;51.502;10.800;2022-12-07T07:35:24;8.63;;;4.43;;
20138;SDS011;10230;51.502;10.800;2022-12-07T07:37:51;10.07;;;5.23;;
20138;SDS011;10230;51.502;10.800;2022-12-07T07:40:17;8.20;;;4.50;;
20138;SDS011;10230;51.502;10.800;2022-12-07T07:42:42;7.80;;;4.00;;
20138;SDS011;10230;51.502;10.800;2022-12-07T07:45:08;6.57;;;3.73;;
20138;SDS011;10230;51.502;10.800;2022-12-07T07:47:34;7.03;;;3.63;;
20138;SDS011;10230;51.502;10.800;2022-12-07T07:50:00;6.93;;;3.53;;
20138;SDS011;10230;51.502;10.800;2022-12-07T07:52:25;8.30;;;3.63;;
20138;SDS011;10230;51.502;10.800;2022-12-07T07:54:51;6.23;;;3.53;;
20138;SDS011;10230;51.502;10.800;2022-12-07T07:57:17;5.70;;;3.90;;
20138;SDS011;10230;51.502;10.800;2022-12-07T07:59:43;7.77;;;3.83;;
20138;SDS011;10230;51.502;10.800;2022-12-07T08:02:12;7.23;;;3.30;;
20138;SDS011;10230;51.502;10.800;2022-12-07T08:04:40;6.27;;;3.77;;
20138;SDS011;10230;51.502;10.800;2022-12-07T08:07:06;8.80;;;3.97;;
20138;SDS011;10230;51.502;10.800;2022-12-07T08:09:31;6.80;;;4.03;;
20138;SDS011;10230;51.502;10.800;2022-12-07T08:11:57;8.40;;;3.70;;
20138;SDS011;10230;51.502;10.800;2022-12-07T08:14:23;5.93;;;3.47;;
20138;SDS011;10230;51.502;10.800;2022-12-07T08:16:49;9.17;;;4.23;;
20138;SDS011;10230;51.502;10.800;2022-12-07T08:19:15;6.30;;;4.10;;
20138;SDS011;10230;51.502;10.800;2022-12-07T08:21:41;9.47;;;3.17;;
20138;SDS011;10230;51.502;10.800;2022-12-07T08:24:06;10.43;;;3.73;;
20138;SDS011;10230;51.502;10.800;2022-12-07T08:26:32;4.73;;;3.30;;
20138;SDS011;10230;51.502;10.800;2022-12-07T08:28:58;6.53;;;3.67;;
20138;SDS011;10230;51.502;10.800;2022-12-07T08:31:24;6.23;;;3.57;;
20138;SDS011;10230;51.502;10.800;2022-12-07T08:33:50;7.87;;;3.43;;
20138;SDS011;10230;51.502;10.800;2022-12-07T08:36:16;6.67;;;3.80;;
20138;SDS011;10230;51.502;10.800;2022-12-07T08:38:42;4.43;;;3.10;;
20138;SDS011;10230;51.502;10.800;2022-12-07T08:41:09;6.47;;;3.40;;
20138;SDS011;10230;51.502;10.800;2022-12-07T08:43:35;8.50;;;2.87;;
20138;SDS011;10230;51.502;10.800;2022-12-07T08:48:26;6.53;;;3.73;;
20138;SDS011;10230;51.502;10.800;2022-12-07T08:50:53;6.83;;;4.33;;
20138;SDS011;10230;51.502;10.800;2022-12-07T08:53:19;5.47;;;3.03;;
20138;SDS011;10230;51.502;10.800;2022-12-07T08:55:45;4.80;;;2.93;;
20138;SDS011;10230;51.502;10.800;2022-12-07T08:58:12;5.93;;;2.50;;
20138;SDS011;10230;51.502;10.800;2022-12-07T09:00:38;6.40;;;3.97;;
20138;SDS011;10230;51.502;10.800;2022-12-07T09:03:04;5.83;;;2.37;;
20138;SDS011;10230;51.502;10.800;2022-12-07T09:05:30;5.33;;;2.63;;
20138;SDS011;10230;51.502;10.800;2022-12-07T09:07:58;4.70;;;2.87;;
20138;SDS011;10230;51.502;10.800;2022-12-07T09:10:26;7.33;;;2.87;;
20138;SDS011;10230;51.502;10.800;2022-12-07T09:12:52;5.07;;;2.60;;
20138;SDS011;10230;51.502;10.800;2022-12-07T09:15:18;3.87;;;2.07;;
20138;SDS011;10230;51.502;10.800;2022-12-07T09:17:44;3.87;;;1.83;;
20138;SDS011;10230;51.502;10.800;2022-12-07T09:20:10;3.53;;;2.10;;
20138;SDS011;10230;51.502;10.800;2022-12-07T09:22:36;9.97;;;1.97;;
20138;SDS011;10230;51.502;10.800;2022-12-07T09:25:02;3.77;;;2.63;;
20138;SDS011;10230;51.502;10.800;2022-12-07T09:27:29;5.00;;;2.47;;
20138;SDS011;10230;51.502;10.800;2022-12-07T09:29:55;4.90;;;1.73;;
20138;SDS011;10230;51.502;10.800;2022-12-07T09:32:21;3.50;;;2.00;;
20138;SDS011;10230;51.502;10.800;2022-12-07T09:34:47;3.13;;;2.00;;
20138;SDS011;10230;51.502;10.800;2022-12-07T09:37:13;3.63;;;1.90;;
20138;SDS011;10230;51.502;10.800;2022-12-07T09:39:39;4.60;;;2.40;;
20138;SDS011;10230;51.502;10.800;2022-12-07T09:42:06;3.30;;;2.07;;
20138;SDS011;10230;51.502;10.800;2022-12-07T09:44:33;7.90;;;2.03;;
20138;SDS011;10230;51.502;10.800;2022-12-07T09:46:59;3.37;;;2.10;;
20138;SDS011;10230;51.502;10.800;2022-12-07T09:49:30;5.23;;;1.87;;
20138;SDS011;10230;51.502;10.800;2022-12-07T09:52:17;2.90;;;1.50;;
20138;SDS011;10230;51.502;10.800;2022-12-07T09:54:49;4.53;;;1.60;;
20138;SDS011;10230;51.502;10.800;2022-12-07T09:57:15;5.83;;;2.50;;
20138;SDS011;10230;51.502;10.800;2022-12-07T09:59:42;6.13;;;2.17;;
20138;SDS011;10230;51.502;10.800;2022-12-07T10:02:25;4.50;;;2.30;;
20138;SDS011;10230;51.502;10.800;2022-12-07T10:05:07;5.87;;;2.27;;
20138;SDS011;10230;51.502;10.800;2022-12-07T10:07:36;3.13;;;2.30;;
20138;SDS011;10230;51.502;10.800;2022-12-07T10:10:03;2.37;;;1.57;;
20138;SDS011;10230;51.502;10.800;2022-12-07T10:12:29;5.33;;;2.17;;
20138;SDS011;10230;51.502;10.800;2022-12-07T10:14:57;5.07;;;2.10;;
20138;SDS011;10230;51.502;10.800;2022-12-07T10:17:29;4.27;;;2.17;;
20138;SDS011;10230;51.502;10.800;2022-12-07T10:22:37;3.80;;;1.53;;
20138;SDS011;10230;51.502;10.800;2022-12-07T10:25:17;3.33;;;1.83;;
20138;SDS011;10230;51.502;10.800;2022-12-07T10:27:44;3.30;;;1.83;;
20138;SDS011;10230;51.502;10.800;2022-12-07T10:30:22;5.20;;;2.67;;
20138;SDS011;10230;51.502;10.800;2022-12-07T10:32:48;2.50;;;1.47;;
20138;SDS011;10230;51.502;10.800;2022-12-07T10:35:22;2.47;;;1.60;;
20138;SDS011;10230;51.502;10.800;2022-12-07T10:37:49;2.50;;;1.70;;
20138;SDS011;10230;51.502;10.800;2022-12-07T10:40:28;2.07;;;1.33;;
20138;SDS011;10230;51.502;10.800;2022-12-07T10:43:05;3.63;;;1.57;;
20138;SDS011;10230;51.502;10.800;2022-12-07T10:45:32;2.57;;;1.50;;
20138;SDS011;10230;51.502;10.800;2022-12-07T11:01:03;2.43;;;1.70;;
20138;SDS011;10230;51.502;10.800;2022-12-07T11:06:05;3.80;;;1.70;;
20138;SDS011;10230;51.502;10.800;2022-12-07T11:11:06;3.13;;;1.70;;
20138;SDS011;10230;51.502;10.800;2022-12-07T11:21:30;2.70;;;1.70;;
20138;SDS011;10230;51.502;10.800;2022-12-07T11:24:10;2.63;;;1.43;;
20138;SDS011;10230;51.502;10.800;2022-12-07T11:34:49;3.80;;;1.70;;
20138;SDS011;10230;51.502;10.800;2022-12-07T11:37:19;4.83;;;1.83;;
20138;SDS011;10230;51.502;10.800;2022-12-07T11:42:19;2.67;;;1.70;;
20138;SDS011;10230;51.502;10.800;2022-12-07T11:47:40;6.40;;;1.70;;
20138;SDS011;10230;51.502;10.800;2022-12-07T11:50:14;2.57;;;1.93;;
20138;SDS011;10230;51.502;10.800;2022-12-07T11:52:49;2.30;;;1.47;;
20138;SDS011;10230;51.502;10.800;2022-12-07T11:55:32;2.60;;;1.43;;
20138;SDS011;10230;51.502;10.800;2022-12-07T11:58:08;2.43;;;1.60;;
20138;SDS011;10230;51.502;10.800;2022-12-07T12:00:39;3.37;;;1.50;;
20138;SDS011;10230;51.502;10.800;2022-12-07T12:03:11;4.17;;;1.50;;
20138;SDS011;10230;51.502;10.800;2022-12-07T12:05:38;4.30;;;1.30;;
20138;SDS011;10230;51.502;10.800;2022-12-07T12:10:37;3.73;;;1.60;;
20138;SDS011;10230;51.502;10.800;2022-12-07T12:20:41;2.90;;;1.73;;
20138;SDS011;10230;51.502;10.800;2022-12-07T12:23:13;4.23;;;1.20;;
20138;SDS011;10230;51.502;10.800;2022-12-07T12:25:51;4.47;;;1.43;;
20138;SDS011;10230;51.502;10.800;2022-12-07T12:33:32;1.70;;;1.17;;
20138;SDS011;10230;51.502;10.800;2022-12-07T12:51:56;2.93;;;1.23;;
20138;SDS011;10230;51.502;10.800;2022-12-07T12:54:23;4.30;;;1.83;;
20138;SDS011;10230;51.502;10.800;2022-12-07T12:59:35;3.73;;;0.93;;
20138;SDS011;10230;51.502;10.800;2022-12-07T13:04:36;1.87;;;0.87;;
20138;SDS011;10230;51.502;10.800;2022-12-07T13:07:09;2.13;;;1.10;;
20138;SDS011;10230;51.502;10.800;2022-12-07T13:09:36;3.03;;;0.87;;
20138;SDS011;10230;51.502;10.800;2022-12-07T13:12:11;2.43;;;1.27;;
20138;SDS011;10230;51.502;10.800;2022-12-07T13:14:57;2.40;;;1.20;;
20138;SDS011;10230;51.502;10.800;2022-12-07T13:24:57;2.10;;;1.40;;
20138;SDS011;10230;51.502;10.800;2022-12-07T13:27:26;4.13;;;1.10;;
20138;SDS011;10230;51.502;10.800;2022-12-07T13:29:53;2.80;;;1.10;;
20138;SDS011;10230;51.502;10.800;2022-12-07T13:32:25;3.37;;;1.30;;
20138;SDS011;10230;51.502;10.800;2022-12-07T13:34:51;3.73;;;1.20;;
20138;SDS011;10230;51.502;10.800;2022-12-07T13:37:21;3.17;;;1.10;;
20138;SDS011;10230;51.502;10.800;2022-12-07T13:39:59;4.10;;;1.40;;
20138;SDS011;10230;51.502;10.800;2022-12-07T13:44:51;1.97;;;1.20;;
20138;SDS011;10230;51.502;10.800;2022-12-07T13:47:51;1.67;;;1.10;;
20138;SDS011;10230;51.502;10.800;2022-12-07T13:50:26;4.40;;;1.40;;
20138;SDS011;10230;51.502;10.800;2022-12-07T13:52:56;4.77;;;1.07;;
20138;SDS011;10230;51.502;10.800;2022-12-07T13:55:22;2.43;;;1.40;;
20138;SDS011;10230;51.502;10.800;2022-12-07T13:57:49;3.10;;;1.53;;
20138;SDS011;10230;51.502;10.800;2022-12-07T14:00:16;3.67;;;1.33;;
20138;SDS011;10230;51.502;10.800;2022-12-07T14:05:33;1.70;;;0.70;;
20138;SDS011;10230;51.502;10.800;2022-12-07T14:08:03;2.43;;;0.97;;
20138;SDS011;10230;51.502;10.800;2022-12-07T14:10:34;2.83;;;0.90;;
20138;SDS011;10230;51.502;10.800;2022-12-07T14:13:01;3.07;;;1.07;;
20138;SDS011;10230;51.502;10.800;2022-12-07T14:15:29;4.63;;;1.00;;
20138;SDS011;10230;51.502;10.800;2022-12-07T14:17:56;2.40;;;1.20;;
20138;SDS011;10230;51.502;10.800;2022-12-07T14:20:33;3.50;;;1.50;;
20138;SDS011;10230;51.502;10.800;2022-12-07T14:22:59;1.50;;;1.10;;
20138;SDS011;10230;51.502;10.800;2022-12-07T14:25:33;7.80;;;2.97;;
20138;SDS011;10230;51.502;10.800;2022-12-07T14:28:10;2.77;;;1.30;;
20138;SDS011;10230;51.502;10.800;2022-12-07T14:30:49;5.10;;;0.90;;
20138;SDS011;10230;51.502;10.800;2022-12-07T14:33:15;2.67;;;1.00;;
20138;SDS011;10230;51.502;10.800;2022-12-07T14:35:42;3.53;;;1.40;;
20138;SDS011;10230;51.502;10.800;2022-12-07T14:38:08;4.63;;;1.37;;
20138;SDS011;10230;51.502;10.800;2022-12-07T14:40:34;2.73;;;1.37;;
20138;SDS011;10230;51.502;10.800;2022-12-07T14:43:01;4.83;;;1.33;;
20138;SDS011;10230;51.502;10.800;2022-12-07T14:45:27;2.20;;;1.00;;
20138;SDS011;10230;51.502;10.800;2022-12-07T14:47:53;4.53;;;1.20;;
20138;SDS011;10230;51.502;10.800;2022-12-07T14:50:19;4.03;;;1.20;;
20138;SDS011;10230;51.502;10.800;2022-12-07T14:52:47;2.50;;;1.60;;
20138;SDS011;10230;51.502;10.800;2022-12-07T14:55:14;2.80;;;1.37;;
20138;SDS011;10230;51.502;10.800;2022-12-07T14:57:42;2.20;;;0.87;;
20138;SDS011;10230;51.502;10.800;2022-12-07T15:00:09;3.27;;;1.03;;
20138;SDS011;10230;51.502;10.800;2022-12-07T15:02:38;2.87;;;1.17;;
20138;SDS011;10230;51.502;10.800;2022-12-07T15:05:04;4.30;;;1.00;;
20138;SDS011;10230;51.502;10.800;2022-12-07T15:07:30;2.10;;;1.20;;
20138;SDS011;10230;51.502;10.800;2022-12-07T15:09:56;2.00;;;1.10;;
20138;SDS011;10230;51.502;10.800;2022-12-07T15:12:22;2.00;;;1.57;;
20138;SDS011;10230;51.502;10.800;2022-12-07T15:14:49;5.10;;;1.00;;
20138;SDS011;10230;51.502;10.800;2022-12-07T15:17:15;2.10;;;1.40;;
20138;SDS011;10230;51.502;10.800;2022-12-07T15:19:41;2.10;;;1.53;;
20138;SDS011;10230;51.502;10.800;2022-12-07T15:22:08;3.63;;;1.40;;
20138;SDS011;10230;51.502;10.800;2022-12-07T15:24:35;1.70;;;1.20;;
20138;SDS011;10230;51.502;10.800;2022-12-07T15:27:01;2.73;;;1.50;;
20138;SDS011;10230;51.502;10.800;2022-12-07T15:29:27;1.87;;;1.63;;
20138;SDS011;10230;51.502;10.800;2022-12-07T15:31:54;2.80;;;1.00;;
20138;SDS011;10230;51.502;10.800;2022-12-07T15:34:20;2.77;;;1.53;;
20138;SDS011;10230;51.502;10.800;2022-12-07T15:36:46;2.97;;;1.33;;
20138;SDS011;10230;51.502;10.800;2022-12-07T15:39:12;2.97;;;1.57;;
20138;SDS011;10230;51.502;10.800;2022-12-07T15:41:38;1.77;;;1.20;;
20138;SDS011;10230;51.502;10.800;2022-12-07T15:44:04;3.40;;;1.77;;
20138;SDS011;10230;51.502;10.800;2022-12-07T15:46:48;5.97;;;1.60;;
20138;SDS011;10230;51.502;10.800;2022-12-07T15:49:16;5.93;;;1.70;;
20138;SDS011;10230;51.502;10.800;2022-12-07T15:51:42;4.87;;;2.10;;
20138;SDS011;10230;51.502;10.800;2022-12-07T15:54:11;2.87;;;1.40;;
20138;SDS011;10230;51.502;10.800;2022-12-07T15:56:38;1.30;;;1.17;;
20138;SDS011;10230;51.502;10.800;2022-12-07T15:59:04;5.57;;;1.57;;
20138;SDS011;10230;51.502;10.800;2022-12-07T16:01:30;5.23;;;1.33;;
20138;SDS011;10230;51.502;10.800;2022-12-07T16:03:56;2.60;;;1.53;;
20138;SDS011;10230;51.502;10.800;2022-12-07T16:06:24;2.90;;;1.60;;
20138;SDS011;10230;51.502;10.800;2022-12-07T16:08:50;3.53;;;1.63;;
20138;SDS011;10230;51.502;10.800;2022-12-07T16:11:16;3.83;;;2.03;;
20138;SDS011;10230;51.502;10.800;2022-12-07T16:13:42;3.90;;;1.57;;
20138;SDS011;10230;51.502;10.800;2022-12-07T16:16:13;2.90;;;1.90;;
20138;SDS011;10230;51.502;10.800;2022-12-07T16:18:39;2.60;;;1.43;;
20138;SDS011;10230;51.502;10.800;2022-12-07T16:21:05;7.10;;;1.80;;
20138;SDS011;10230;51.502;10.800;2022-12-07T16:23:32;7.10;;;2.00;;
20138;SDS011;10230;51.502;10.800;2022-12-07T16:26:08;4.13;;;1.60;;
20138;SDS011;10230;51.502;10.800;2022-12-07T16:28:34;4.20;;;1.80;;
20138;SDS011;10230;51.502;10.800;2022-12-07T16:31:14;7.03;;;1.63;;
20138;SDS011;10230;51.502;10.800;2022-12-07T16:33:40;6.57;;;1.97;;
20138;SDS011;10230;51.502;10.800;2022-12-07T16:36:08;12.70;;;3.90;;
20138;SDS011;10230;51.502;10.800;2022-12-07T16:38:35;9.23;;;3.60;;
20138;SDS011;10230;51.502;10.800;2022-12-07T16:41:01;3.77;;;2.40;;
20138;SDS011;10230;51.502;10.800;2022-12-07T16:43:27;4.80;;;2.00;;
20138;SDS011;10230;51.502;10.800;2022-12-07T16:45:53;4.17;;;1.47;;
20138;SDS011;10230;51.502;10.800;2022-12-07T16:48:19;3.77;;;2.40;;
20138;SDS011;10230;51.502;10.800;2022-12-07T16:50:45;2.83;;;1.80;;
20138;SDS011;10230;51.502;10.800;2022-12-07T16:53:12;3.23;;;2.00;;
20138;SDS011;10230;51.502;10.800;2022-12-07T16:55:39;3.93;;;1.77;;